sensor_id;sensor_type;location;lat;lon;timestamp;P1;durP1;ratioP1;P2;durP2;ratioP2
30824;SDS011;17550;45.486;12.222;2023-04-07T00:01:01;61.35;;;37.10;;
30824;SDS011;17550;45.486;12.222;2023-04-07T00:03:27;67.00;;;39.80;;
30824;SDS011;17550;45.486;12.222;2023-04-07T00:05:52;59.40;;;37.53;;
30824;SDS011;17550;45.486;12.222;2023-04-07T00:08:18;59.85;;;36.00;;
30824;SDS011;17550;45.486;12.222;2023-04-07T00:10:44;59.80;;;38.50;;
30824;SDS011;17550;45.486;12.222;2023-04-07T00:13:10;55.65;;;37.10;;
30824;SDS011;17550;45.486;12.222;2023-04-07T00:15:36;56.05;;;36.95;;
30824;SDS011;17550;45.486;12.222;2023-04-07T00:18:02;68.88;;;40.05;;
30824;SDS011;17550;45.486;12.222;2023-04-07T00:20:28;65.47;;;39.03;;
30824;SDS011;17550;45.486;12.222;2023-04-07T00:22:53;67.68;;;40.15;;
30824;SDS011;17550;45.486;12.222;2023-04-07T00:25:19;63.30;;;39.90;;
30824;SDS011;17550;45.486;12.222;2023-04-07T00:27:45;69.22;;;40.40;;
30824;SDS011;17550;45.486;12.222;2023-04-07T00:30:11;65.47;;;38.47;;
30824;SDS011;17550;45.486;12.222;2023-04-07T00:32:36;63.60;;;38.90;;
30824;SDS011;17550;45.486;12.222;2023-04-07T00:35:02;61.92;;;39.22;;
30824;SDS011;17550;45.486;12.222;2023-04-07T00:37:28;64.00;;;37.97;;
30824;SDS011;17550;45.486;12.222;2023-04-07T00:39:54;65.47;;;39.78;;
30824;SDS011;17550;45.486;12.222;2023-04-07T00:42:21;64.72;;;39.22;;
30824;SDS011;17550;45.486;12.222;2023-04-07T00:44:46;55.10;;;37.15;;
30824;SDS011;17550;45.486;12.222;2023-04-07T00:47:12;65.32;;;39.08;;
30824;SDS011;17550;45.486;12.222;2023-04-07T00:49:39;63.05;;;39.90;;
30824;SDS011;17550;45.486;12.222;2023-04-07T00:52:05;69.28;;;43.05;;
30824;SDS011;17550;45.486;12.222;2023-04-07T00:54:32;62.83;;;39.97;;
30824;SDS011;17550;45.486;12.222;2023-04-07T00:56:57;64.60;;;40.10;;
30824;SDS011;17550;45.486;12.222;2023-04-07T00:59:23;66.55;;;41.50;;
30824;SDS011;17550;45.486;12.222;2023-04-07T01:01:54;69.38;;;40.75;;
30824;SDS011;17550;45.486;12.222;2023-04-07T01:04:27;68.95;;;39.95;;
30824;SDS011;17550;45.486;12.222;2023-04-07T01:07:03;62.80;;;39.10;;
30824;SDS011;17550;45.486;12.222;2023-04-07T01:09:38;64.15;;;38.60;;
30824;SDS011;17550;45.486;12.222;2023-04-07T01:15:31;63.58;;;40.05;;
30824;SDS011;17550;45.486;12.222;2023-04-07T01:18:05;67.32;;;38.53;;
30824;SDS011;17550;45.486;12.222;2023-04-07T01:20:37;72.00;;;41.13;;
30824;SDS011;17550;45.486;12.222;2023-04-07T01:23:04;63.65;;;38.50;;
30824;SDS011;17550;45.486;12.222;2023-04-07T01:30:52;59.53;;;38.70;;
30824;SDS011;17550;45.486;12.222;2023-04-07T01:33:20;72.03;;;39.70;;
30824;SDS011;17550;45.486;12.222;2023-04-07T01:35:47;63.15;;;40.10;;
30824;SDS011;17550;45.486;12.222;2023-04-07T01:38:15;68.97;;;41.45;;
30824;SDS011;17550;45.486;12.222;2023-04-07T01:40:41;66.05;;;40.00;;
30824;SDS011;17550;45.486;12.222;2023-04-07T01:43:08;60.45;;;38.85;;
30824;SDS011;17550;45.486;12.222;2023-04-07T01:45:35;66.22;;;39.72;;
30824;SDS011;17550;45.486;12.222;2023-04-07T01:48:05;64.53;;;40.75;;
30824;SDS011;17550;45.486;12.222;2023-04-07T01:50:33;60.17;;;40.50;;
30824;SDS011;17550;45.486;12.222;2023-04-07T01:52:59;66.35;;;40.30;;
30824;SDS011;17550;45.486;12.222;2023-04-07T01:55:25;65.35;;;40.35;;
30824;SDS011;17550;45.486;12.222;2023-04-07T01:57:54;65.65;;;39.72;;
30824;SDS011;17550;45.486;12.222;2023-04-07T02:00:19;63.30;;;39.08;;
30824;SDS011;17550;45.486;12.222;2023-04-07T02:02:45;65.32;;;40.50;;
30824;SDS011;17550;45.486;12.222;2023-04-07T02:05:16;65.80;;;40.55;;
30824;SDS011;17550;45.486;12.222;2023-04-07T02:10:22;66.03;;;41.17;;
30824;SDS011;17550;45.486;12.222;2023-04-07T02:12:49;59.85;;;40.10;;
30824;SDS011;17550;45.486;12.222;2023-04-07T02:15:18;66.28;;;41.13;;
30824;SDS011;17550;45.486;12.222;2023-04-07T02:17:47;65.80;;;42.90;;
30824;SDS011;17550;45.486;12.222;2023-04-07T02:20:16;70.00;;;41.92;;
30824;SDS011;17550;45.486;12.222;2023-04-07T02:22:44;65.30;;;42.60;;
30824;SDS011;17550;45.486;12.222;2023-04-07T02:25:23;67.72;;;42.85;;
30824;SDS011;17550;45.486;12.222;2023-04-07T02:27:54;70.30;;;42.67;;
30824;SDS011;17550;45.486;12.222;2023-04-07T02:30:20;61.65;;;41.22;;
30824;SDS011;17550;45.486;12.222;2023-04-07T02:32:46;70.75;;;41.70;;
30824;SDS011;17550;45.486;12.222;2023-04-07T02:35:13;70.38;;;46.05;;
30824;SDS011;17550;45.486;12.222;2023-04-07T02:37:40;70.22;;;46.10;;
30824;SDS011;17550;45.486;12.222;2023-04-07T02:40:07;69.60;;;44.35;;
30824;SDS011;17550;45.486;12.222;2023-04-07T02:42:33;74.70;;;45.33;;
30824;SDS011;17550;45.486;12.222;2023-04-07T02:45:00;67.13;;;44.40;;
30824;SDS011;17550;45.486;12.222;2023-04-07T02:47:27;70.88;;;44.15;;
30824;SDS011;17550;45.486;12.222;2023-04-07T02:49:55;75.63;;;44.95;;
30824;SDS011;17550;45.486;12.222;2023-04-07T02:52:21;75.78;;;45.38;;
30824;SDS011;17550;45.486;12.222;2023-04-07T02:54:47;70.88;;;45.25;;
30824;SDS011;17550;45.486;12.222;2023-04-07T02:57:12;66.78;;;47.30;;
30824;SDS011;17550;45.486;12.222;2023-04-07T02:59:38;73.70;;;46.50;;
30824;SDS011;17550;45.486;12.222;2023-04-07T03:02:05;74.68;;;46.08;;
30824;SDS011;17550;45.486;12.222;2023-04-07T03:04:30;74.30;;;48.33;;
30824;SDS011;17550;45.486;12.222;2023-04-07T03:06:56;69.55;;;47.17;;
30824;SDS011;17550;45.486;12.222;2023-04-07T03:09:22;67.53;;;44.58;;
30824;SDS011;17550;45.486;12.222;2023-04-07T03:11:48;78.68;;;48.50;;
30824;SDS011;17550;45.486;12.222;2023-04-07T03:14:14;76.00;;;46.22;;
30824;SDS011;17550;45.486;12.222;2023-04-07T03:16:40;83.03;;;51.58;;
30824;SDS011;17550;45.486;12.222;2023-04-07T03:19:06;67.20;;;45.80;;
30824;SDS011;17550;45.486;12.222;2023-04-07T03:21:33;73.80;;;47.63;;
30824;SDS011;17550;45.486;12.222;2023-04-07T03:23:59;72.93;;;46.35;;
30824;SDS011;17550;45.486;12.222;2023-04-07T03:26:24;65.90;;;44.90;;
30824;SDS011;17550;45.486;12.222;2023-04-07T03:28:50;79.03;;;49.42;;
30824;SDS011;17550;45.486;12.222;2023-04-07T03:31:16;70.70;;;45.15;;
30824;SDS011;17550;45.486;12.222;2023-04-07T03:33:41;68.85;;;45.47;;
30824;SDS011;17550;45.486;12.222;2023-04-07T03:36:07;73.22;;;47.47;;
30824;SDS011;17550;45.486;12.222;2023-04-07T03:38:33;75.55;;;45.58;;
30824;SDS011;17550;45.486;12.222;2023-04-07T03:40:58;68.20;;;47.05;;
30824;SDS011;17550;45.486;12.222;2023-04-07T03:43:24;69.97;;;45.22;;
30824;SDS011;17550;45.486;12.222;2023-04-07T03:45:51;69.25;;;44.30;;
30824;SDS011;17550;45.486;12.222;2023-04-07T03:48:18;75.20;;;45.17;;
30824;SDS011;17550;45.486;12.222;2023-04-07T03:50:44;69.97;;;43.72;;
30824;SDS011;17550;45.486;12.222;2023-04-07T03:53:10;74.30;;;43.42;;
30824;SDS011;17550;45.486;12.222;2023-04-07T03:55:39;65.13;;;42.03;;
30824;SDS011;17550;45.486;12.222;2023-04-07T03:58:05;69.70;;;42.33;;
30824;SDS011;17550;45.486;12.222;2023-04-07T04:00:31;75.07;;;43.03;;
30824;SDS011;17550;45.486;12.222;2023-04-07T04:02:58;61.95;;;42.28;;
30824;SDS011;17550;45.486;12.222;2023-04-07T04:05:24;61.80;;;41.22;;
30824;SDS011;17550;45.486;12.222;2023-04-07T04:07:49;70.38;;;42.38;;
30824;SDS011;17550;45.486;12.222;2023-04-07T04:10:17;66.78;;;40.97;;
30824;SDS011;17550;45.486;12.222;2023-04-07T04:12:43;67.53;;;41.65;;
30824;SDS011;17550;45.486;12.222;2023-04-07T04:15:09;64.85;;;40.47;;
30824;SDS011;17550;45.486;12.222;2023-04-07T04:17:35;64.80;;;39.33;;
30824;SDS011;17550;45.486;12.222;2023-04-07T04:20:01;62.13;;;40.00;;
30824;SDS011;17550;45.486;12.222;2023-04-07T04:22:27;65.20;;;40.63;;
30824;SDS011;17550;45.486;12.222;2023-04-07T04:24:52;65.20;;;41.00;;
30824;SDS011;17550;45.486;12.222;2023-04-07T04:27:18;64.50;;;39.10;;
30824;SDS011;17550;45.486;12.222;2023-04-07T04:29:45;61.55;;;40.00;;
30824;SDS011;17550;45.486;12.222;2023-04-07T04:32:11;70.80;;;40.38;;
30824;SDS011;17550;45.486;12.222;2023-04-07T04:34:37;61.88;;;39.97;;
30824;SDS011;17550;45.486;12.222;2023-04-07T04:37:03;65.00;;;38.22;;
30824;SDS011;17550;45.486;12.222;2023-04-07T04:39:29;60.95;;;38.95;;
30824;SDS011;17550;45.486;12.222;2023-04-07T04:41:55;54.78;;;37.88;;
30824;SDS011;17550;45.486;12.222;2023-04-07T04:44:21;59.13;;;37.70;;
30824;SDS011;17550;45.486;12.222;2023-04-07T04:46:47;60.75;;;39.10;;
30824;SDS011;17550;45.486;12.222;2023-04-07T04:49:13;64.75;;;39.00;;
30824;SDS011;17550;45.486;12.222;2023-04-07T04:51:40;59.85;;;38.10;;
30824;SDS011;17550;45.486;12.222;2023-04-07T04:54:06;58.65;;;36.17;;
30824;SDS011;17550;45.486;12.222;2023-04-07T04:56:32;66.10;;;38.97;;
30824;SDS011;17550;45.486;12.222;2023-04-07T04:58:58;59.47;;;35.95;;
30824;SDS011;17550;45.486;12.222;2023-04-07T05:01:23;57.00;;;35.28;;
30824;SDS011;17550;45.486;12.222;2023-04-07T05:03:49;57.85;;;35.10;;
30824;SDS011;17550;45.486;12.222;2023-04-07T05:06:15;56.78;;;35.47;;
30824;SDS011;17550;45.486;12.222;2023-04-07T05:08:41;54.10;;;34.28;;
30824;SDS011;17550;45.486;12.222;2023-04-07T05:11:07;55.47;;;35.78;;
30824;SDS011;17550;45.486;12.222;2023-04-07T05:13:33;56.28;;;36.78;;
30824;SDS011;17550;45.486;12.222;2023-04-07T05:15:59;53.67;;;34.88;;
30824;SDS011;17550;45.486;12.222;2023-04-07T05:18:25;59.33;;;35.97;;
30824;SDS011;17550;45.486;12.222;2023-04-07T05:20:51;58.53;;;35.40;;
30824;SDS011;17550;45.486;12.222;2023-04-07T05:23:16;54.22;;;33.88;;
30824;SDS011;17550;45.486;12.222;2023-04-07T05:25:42;52.10;;;33.08;;
30824;SDS011;17550;45.486;12.222;2023-04-07T05:28:08;48.53;;;33.20;;
30824;SDS011;17550;45.486;12.222;2023-04-07T05:30:33;49.75;;;33.28;;
30824;SDS011;17550;45.486;12.222;2023-04-07T05:32:59;50.58;;;32.88;;
30824;SDS011;17550;45.486;12.222;2023-04-07T05:35:25;50.97;;;33.72;;
30824;SDS011;17550;45.486;12.222;2023-04-07T05:37:50;57.28;;;35.50;;
30824;SDS011;17550;45.486;12.222;2023-04-07T05:40:16;58.25;;;37.17;;
30824;SDS011;17550;45.486;12.222;2023-04-07T05:42:42;58.63;;;36.03;;
30824;SDS011;17550;45.486;12.222;2023-04-07T05:45:08;53.45;;;35.42;;
30824;SDS011;17550;45.486;12.222;2023-04-07T05:47:35;58.72;;;38.22;;
30824;SDS011;17550;45.486;12.222;2023-04-07T05:50:01;55.28;;;35.83;;
30824;SDS011;17550;45.486;12.222;2023-04-07T05:52:27;55.80;;;36.28;;
30824;SDS011;17550;45.486;12.222;2023-04-07T05:54:53;56.47;;;35.78;;
30824;SDS011;17550;45.486;12.222;2023-04-07T05:57:18;59.47;;;36.45;;
30824;SDS011;17550;45.486;12.222;2023-04-07T05:59:44;55.30;;;34.28;;
30824;SDS011;17550;45.486;12.222;2023-04-07T06:02:10;48.08;;;34.05;;
30824;SDS011;17550;45.486;12.222;2023-04-07T06:04:36;51.85;;;33.92;;
30824;SDS011;17550;45.486;12.222;2023-04-07T06:07:03;54.30;;;33.75;;
30824;SDS011;17550;45.486;12.222;2023-04-07T06:09:29;56.90;;;33.67;;
30824;SDS011;17550;45.486;12.222;2023-04-07T06:11:55;57.47;;;33.78;;
30824;SDS011;17550;45.486;12.222;2023-04-07T06:14:21;55.42;;;33.45;;
30824;SDS011;17550;45.486;12.222;2023-04-07T06:16:47;57.05;;;34.70;;
30824;SDS011;17550;45.486;12.222;2023-04-07T06:19:13;58.08;;;34.72;;
30824;SDS011;17550;45.486;12.222;2023-04-07T06:21:39;51.42;;;33.22;;
30824;SDS011;17550;45.486;12.222;2023-04-07T06:24:05;48.88;;;33.08;;
30824;SDS011;17550;45.486;12.222;2023-04-07T06:26:31;56.72;;;32.80;;
30824;SDS011;17550;45.486;12.222;2023-04-07T06:28:57;59.03;;;35.65;;
30824;SDS011;17550;45.486;12.222;2023-04-07T06:31:23;60.30;;;36.30;;
30824;SDS011;17550;45.486;12.222;2023-04-07T06:33:50;58.40;;;34.83;;
30824;SDS011;17550;45.486;12.222;2023-04-07T06:36:15;65.10;;;37.35;;
30824;SDS011;17550;45.486;12.222;2023-04-07T06:38:41;55.47;;;35.60;;
30824;SDS011;17550;45.486;12.222;2023-04-07T06:41:08;54.05;;;35.78;;
30824;SDS011;17550;45.486;12.222;2023-04-07T06:43:40;63.97;;;38.50;;
30824;SDS011;17550;45.486;12.222;2023-04-07T06:46:07;72.03;;;38.05;;
30824;SDS011;17550;45.486;12.222;2023-04-07T06:48:32;61.88;;;36.42;;
30824;SDS011;17550;45.486;12.222;2023-04-07T06:50:58;64.00;;;38.10;;
30824;SDS011;17550;45.486;12.222;2023-04-07T06:53:24;61.00;;;39.72;;
30824;SDS011;17550;45.486;12.222;2023-04-07T06:55:50;57.15;;;37.13;;
30824;SDS011;17550;45.486;12.222;2023-04-07T06:58:15;60.00;;;38.25;;
30824;SDS011;17550;45.486;12.222;2023-04-07T07:00:41;60.88;;;38.25;;
30824;SDS011;17550;45.486;12.222;2023-04-07T07:03:07;54.92;;;34.70;;
30824;SDS011;17550;45.486;12.222;2023-04-07T07:05:32;58.00;;;34.95;;
30824;SDS011;17550;45.486;12.222;2023-04-07T07:07:58;55.53;;;34.95;;
30824;SDS011;17550;45.486;12.222;2023-04-07T07:10:24;59.78;;;35.40;;
30824;SDS011;17550;45.486;12.222;2023-04-07T07:12:50;56.85;;;34.75;;
30824;SDS011;17550;45.486;12.222;2023-04-07T07:15:16;47.45;;;31.85;;
30824;SDS011;17550;45.486;12.222;2023-04-07T07:17:42;56.30;;;32.97;;
30824;SDS011;17550;45.486;12.222;2023-04-07T07:20:08;49.97;;;31.83;;
30824;SDS011;17550;45.486;12.222;2023-04-07T07:22:34;59.03;;;31.67;;
30824;SDS011;17550;45.486;12.222;2023-04-07T07:25:00;50.35;;;31.70;;
30824;SDS011;17550;45.486;12.222;2023-04-07T07:27:26;53.63;;;33.42;;
30824;SDS011;17550;45.486;12.222;2023-04-07T07:29:53;50.28;;;32.40;;
30824;SDS011;17550;45.486;12.222;2023-04-07T07:32:20;54.28;;;32.35;;
30824;SDS011;17550;45.486;12.222;2023-04-07T07:34:46;52.35;;;32.30;;
30824;SDS011;17550;45.486;12.222;2023-04-07T07:37:12;56.65;;;31.95;;
30824;SDS011;17550;45.486;12.222;2023-04-07T07:39:37;53.33;;;32.33;;
30824;SDS011;17550;45.486;12.222;2023-04-07T07:42:03;54.60;;;32.25;;
30824;SDS011;17550;45.486;12.222;2023-04-07T07:44:29;54.35;;;33.30;;
30824;SDS011;17550;45.486;12.222;2023-04-07T07:46:55;54.70;;;35.05;;
30824;SDS011;17550;45.486;12.222;2023-04-07T07:49:20;55.92;;;34.60;;
30824;SDS011;17550;45.486;12.222;2023-04-07T07:51:46;50.97;;;33.40;;
30824;SDS011;17550;45.486;12.222;2023-04-07T07:54:12;50.35;;;32.63;;
30824;SDS011;17550;45.486;12.222;2023-04-07T07:56:37;48.03;;;32.92;;
30824;SDS011;17550;45.486;12.222;2023-04-07T07:59:03;50.30;;;33.75;;
30824;SDS011;17550;45.486;12.222;2023-04-07T08:01:30;59.83;;;33.20;;
30824;SDS011;17550;45.486;12.222;2023-04-07T08:03:56;51.72;;;31.70;;
30824;SDS011;17550;45.486;12.222;2023-04-07T08:06:22;53.13;;;31.63;;
30824;SDS011;17550;45.486;12.222;2023-04-07T08:08:48;48.88;;;32.03;;
30824;SDS011;17550;45.486;12.222;2023-04-07T08:11:14;54.55;;;33.53;;
30824;SDS011;17550;45.486;12.222;2023-04-07T08:13:41;45.85;;;31.05;;
30824;SDS011;17550;45.486;12.222;2023-04-07T08:16:09;52.47;;;33.13;;
30824;SDS011;17550;45.486;12.222;2023-04-07T08:18:35;51.33;;;31.85;;
30824;SDS011;17550;45.486;12.222;2023-04-07T08:21:02;54.33;;;32.88;;
30824;SDS011;17550;45.486;12.222;2023-04-07T08:23:29;48.15;;;32.33;;
30824;SDS011;17550;45.486;12.222;2023-04-07T08:25:55;52.60;;;33.13;;
30824;SDS011;17550;45.486;12.222;2023-04-07T08:28:21;48.70;;;31.77;;
30824;SDS011;17550;45.486;12.222;2023-04-07T08:30:48;53.80;;;33.17;;
30824;SDS011;17550;45.486;12.222;2023-04-07T08:33:13;51.22;;;32.88;;
30824;SDS011;17550;45.486;12.222;2023-04-07T08:35:40;45.65;;;30.90;;
30824;SDS011;17550;45.486;12.222;2023-04-07T08:38:05;47.08;;;32.05;;
30824;SDS011;17550;45.486;12.222;2023-04-07T08:40:33;46.85;;;32.30;;
30824;SDS011;17550;45.486;12.222;2023-04-07T08:42:58;49.58;;;31.90;;
30824;SDS011;17550;45.486;12.222;2023-04-07T08:45:25;45.67;;;30.17;;
30824;SDS011;17550;45.486;12.222;2023-04-07T08:47:53;43.15;;;30.25;;
30824;SDS011;17550;45.486;12.222;2023-04-07T08:50:25;43.30;;;28.02;;
30824;SDS011;17550;45.486;12.222;2023-04-07T08:52:55;41.90;;;30.30;;
30824;SDS011;17550;45.486;12.222;2023-04-07T08:55:24;43.35;;;28.40;;
30824;SDS011;17550;45.486;12.222;2023-04-07T08:57:50;44.95;;;28.98;;
30824;SDS011;17550;45.486;12.222;2023-04-07T09:00:17;40.80;;;26.63;;
30824;SDS011;17550;45.486;12.222;2023-04-07T09:02:43;38.75;;;25.00;;
30824;SDS011;17550;45.486;12.222;2023-04-07T09:05:13;43.20;;;27.08;;
30824;SDS011;17550;45.486;12.222;2023-04-07T09:07:39;38.80;;;25.50;;
30824;SDS011;17550;45.486;12.222;2023-04-07T09:10:07;38.95;;;24.30;;
30824;SDS011;17550;45.486;12.222;2023-04-07T09:12:34;42.65;;;23.40;;
30824;SDS011;17550;45.486;12.222;2023-04-07T09:15:00;39.85;;;25.40;;
30824;SDS011;17550;45.486;12.222;2023-04-07T09:17:26;36.35;;;24.55;;
30824;SDS011;17550;45.486;12.222;2023-04-07T09:19:56;39.90;;;25.20;;
30824;SDS011;17550;45.486;12.222;2023-04-07T09:25:08;42.08;;;26.10;;
30824;SDS011;17550;45.486;12.222;2023-04-07T09:27:54;39.47;;;24.92;;
30824;SDS011;17550;45.486;12.222;2023-04-07T09:30:22;41.08;;;25.80;;
30824;SDS011;17550;45.486;12.222;2023-04-07T09:32:47;45.40;;;27.55;;
30824;SDS011;17550;45.486;12.222;2023-04-07T09:35:13;42.40;;;25.17;;
30824;SDS011;17550;45.486;12.222;2023-04-07T09:37:39;40.10;;;25.05;;
30824;SDS011;17550;45.486;12.222;2023-04-07T09:40:06;42.50;;;25.23;;
30824;SDS011;17550;45.486;12.222;2023-04-07T09:42:33;39.92;;;24.23;;
30824;SDS011;17550;45.486;12.222;2023-04-07T09:45:00;44.83;;;25.60;;
30824;SDS011;17550;45.486;12.222;2023-04-07T09:47:27;43.97;;;26.70;;
30824;SDS011;17550;45.486;12.222;2023-04-07T09:49:53;39.53;;;24.75;;
30824;SDS011;17550;45.486;12.222;2023-04-07T09:52:47;39.92;;;23.73;;
30824;SDS011;17550;45.486;12.222;2023-04-07T09:55:16;40.13;;;24.50;;
30824;SDS011;17550;45.486;12.222;2023-04-07T09:57:47;43.22;;;25.92;;
30824;SDS011;17550;45.486;12.222;2023-04-07T10:00:17;39.50;;;24.10;;
30824;SDS011;17550;45.486;12.222;2023-04-07T10:02:43;41.03;;;23.48;;
30824;SDS011;17550;45.486;12.222;2023-04-07T10:05:10;36.97;;;22.00;;
30824;SDS011;17550;45.486;12.222;2023-04-07T10:07:36;37.55;;;24.00;;
30824;SDS011;17550;45.486;12.222;2023-04-07T10:10:02;48.67;;;23.48;;
30824;SDS011;17550;45.486;12.222;2023-04-07T10:12:29;39.92;;;23.17;;
30824;SDS011;17550;45.486;12.222;2023-04-07T10:14:58;33.90;;;21.73;;
30824;SDS011;17550;45.486;12.222;2023-04-07T10:17:26;36.75;;;23.17;;
30824;SDS011;17550;45.486;12.222;2023-04-07T10:19:52;36.03;;;22.95;;
30824;SDS011;17550;45.486;12.222;2023-04-07T10:22:22;31.95;;;20.77;;
30824;SDS011;17550;45.486;12.222;2023-04-07T10:27:21;35.97;;;22.20;;
30824;SDS011;17550;45.486;12.222;2023-04-07T10:29:53;33.58;;;21.27;;
30824;SDS011;17550;45.486;12.222;2023-04-07T10:32:22;38.88;;;22.63;;
30824;SDS011;17550;45.486;12.222;2023-04-07T10:37:19;30.65;;;21.10;;
30824;SDS011;17550;45.486;12.222;2023-04-07T10:39:46;35.33;;;22.52;;
30824;SDS011;17550;45.486;12.222;2023-04-07T10:45:04;37.50;;;22.77;;
30824;SDS011;17550;45.486;12.222;2023-04-07T10:47:32;37.17;;;23.42;;
30824;SDS011;17550;45.486;12.222;2023-04-07T10:50:14;38.70;;;22.95;;
30824;SDS011;17550;45.486;12.222;2023-04-07T10:52:47;38.10;;;23.42;;
30824;SDS011;17550;45.486;12.222;2023-04-07T10:55:32;35.08;;;22.35;;
30824;SDS011;17550;45.486;12.222;2023-04-07T11:03:39;37.90;;;23.92;;
30824;SDS011;17550;45.486;12.222;2023-04-07T11:06:07;35.10;;;22.05;;
30824;SDS011;17550;45.486;12.222;2023-04-07T11:11:06;40.35;;;24.48;;
30824;SDS011;17550;45.486;12.222;2023-04-07T11:16:35;38.38;;;22.73;;
30824;SDS011;17550;45.486;12.222;2023-04-07T11:19:02;37.40;;;23.33;;
30824;SDS011;17550;45.486;12.222;2023-04-07T11:21:27;36.83;;;23.95;;
30824;SDS011;17550;45.486;12.222;2023-04-07T11:23:54;44.65;;;24.60;;
30824;SDS011;17550;45.486;12.222;2023-04-07T11:26:20;38.33;;;25.23;;
30824;SDS011;17550;45.486;12.222;2023-04-07T11:28:46;36.72;;;23.38;;
30824;SDS011;17550;45.486;12.222;2023-04-07T11:33:55;38.40;;;24.70;;
30824;SDS011;17550;45.486;12.222;2023-04-07T11:36:26;37.58;;;24.48;;
30824;SDS011;17550;45.486;12.222;2023-04-07T11:38:53;36.80;;;24.10;;
30824;SDS011;17550;45.486;12.222;2023-04-07T11:41:20;33.88;;;22.95;;
30824;SDS011;17550;45.486;12.222;2023-04-07T11:43:46;38.33;;;24.90;;
30824;SDS011;17550;45.486;12.222;2023-04-07T11:46:15;36.88;;;22.70;;
30824;SDS011;17550;45.486;12.222;2023-04-07T11:48:42;39.55;;;24.67;;
30824;SDS011;17550;45.486;12.222;2023-04-07T11:51:16;41.75;;;24.58;;
30824;SDS011;17550;45.486;12.222;2023-04-07T11:53:46;47.63;;;27.02;;
30824;SDS011;17550;45.486;12.222;2023-04-07T11:56:18;39.10;;;25.88;;
30824;SDS011;17550;45.486;12.222;2023-04-07T11:58:47;39.85;;;25.65;;
30824;SDS011;17550;45.486;12.222;2023-04-07T12:01:14;38.45;;;25.17;;
30824;SDS011;17550;45.486;12.222;2023-04-07T12:03:54;36.63;;;24.38;;
30824;SDS011;17550;45.486;12.222;2023-04-07T12:06:27;43.63;;;25.92;;
30824;SDS011;17550;45.486;12.222;2023-04-07T12:08:54;39.83;;;24.17;;
30824;SDS011;17550;45.486;12.222;2023-04-07T12:11:20;37.65;;;23.75;;
30824;SDS011;17550;45.486;12.222;2023-04-07T12:13:46;34.65;;;23.15;;
30824;SDS011;17550;45.486;12.222;2023-04-07T12:16:12;39.40;;;23.95;;
30824;SDS011;17550;45.486;12.222;2023-04-07T12:18:42;38.85;;;23.80;;
30824;SDS011;17550;45.486;12.222;2023-04-07T12:21:07;35.80;;;24.48;;
30824;SDS011;17550;45.486;12.222;2023-04-07T12:23:33;35.88;;;23.33;;
30824;SDS011;17550;45.486;12.222;2023-04-07T12:25:59;44.80;;;23.98;;
30824;SDS011;17550;45.486;12.222;2023-04-07T12:28:25;39.97;;;24.00;;
30824;SDS011;17550;45.486;12.222;2023-04-07T12:30:51;39.83;;;24.38;;
30824;SDS011;17550;45.486;12.222;2023-04-07T12:33:17;38.25;;;23.70;;
30824;SDS011;17550;45.486;12.222;2023-04-07T12:35:43;39.65;;;22.90;;
30824;SDS011;17550;45.486;12.222;2023-04-07T12:38:09;43.53;;;23.60;;
30824;SDS011;17550;45.486;12.222;2023-04-07T12:40:35;37.85;;;22.77;;
30824;SDS011;17550;45.486;12.222;2023-04-07T12:43:02;39.75;;;22.80;;
30824;SDS011;17550;45.486;12.222;2023-04-07T12:45:28;38.45;;;23.02;;
30824;SDS011;17550;45.486;12.222;2023-04-07T12:47:55;39.70;;;22.77;;
30824;SDS011;17550;45.486;12.222;2023-04-07T12:50:21;38.05;;;21.73;;
30824;SDS011;17550;45.486;12.222;2023-04-07T12:52:49;37.13;;;21.67;;
30824;SDS011;17550;45.486;12.222;2023-04-07T12:55:15;35.28;;;20.77;;
30824;SDS011;17550;45.486;12.222;2023-04-07T12:57:41;38.13;;;22.63;;
30824;SDS011;17550;45.486;12.222;2023-04-07T13:00:08;35.92;;;22.55;;
30824;SDS011;17550;45.486;12.222;2023-04-07T13:02:34;36.70;;;20.80;;
30824;SDS011;17550;45.486;12.222;2023-04-07T13:05:01;31.55;;;18.83;;
30824;SDS011;17550;45.486;12.222;2023-04-07T13:07:28;36.40;;;19.40;;
30824;SDS011;17550;45.486;12.222;2023-04-07T13:09:54;36.38;;;19.88;;
30824;SDS011;17550;45.486;12.222;2023-04-07T13:12:21;32.78;;;19.58;;
30824;SDS011;17550;45.486;12.222;2023-04-07T13:14:47;33.72;;;20.52;;
30824;SDS011;17550;45.486;12.222;2023-04-07T13:17:13;38.45;;;20.17;;
30824;SDS011;17550;45.486;12.222;2023-04-07T13:19:39;29.75;;;17.63;;
30824;SDS011;17550;45.486;12.222;2023-04-07T13:22:05;34.42;;;20.13;;
30824;SDS011;17550;45.486;12.222;2023-04-07T13:24:31;34.97;;;19.08;;
30824;SDS011;17550;45.486;12.222;2023-04-07T13:26:57;31.13;;;18.88;;
30824;SDS011;17550;45.486;12.222;2023-04-07T13:29:23;32.22;;;19.00;;
30824;SDS011;17550;45.486;12.222;2023-04-07T13:31:49;28.10;;;16.33;;
30824;SDS011;17550;45.486;12.222;2023-04-07T13:34:15;29.77;;;16.50;;
30824;SDS011;17550;45.486;12.222;2023-04-07T13:36:41;30.45;;;14.82;;
30824;SDS011;17550;45.486;12.222;2023-04-07T13:39:07;26.27;;;15.13;;
30824;SDS011;17550;45.486;12.222;2023-04-07T13:41:33;26.25;;;14.23;;
30824;SDS011;17550;45.486;12.222;2023-04-07T13:43:59;32.60;;;15.30;;
30824;SDS011;17550;45.486;12.222;2023-04-07T13:46:25;27.98;;;15.48;;
30824;SDS011;17550;45.486;12.222;2023-04-07T13:48:52;27.90;;;16.23;;
30824;SDS011;17550;45.486;12.222;2023-04-07T13:51:18;31.50;;;14.98;;
30824;SDS011;17550;45.486;12.222;2023-04-07T13:53:44;26.67;;;14.10;;
30824;SDS011;17550;45.486;12.222;2023-04-07T13:56:10;27.40;;;14.98;;
30824;SDS011;17550;45.486;12.222;2023-04-07T13:58:36;31.38;;;17.17;;
30824;SDS011;17550;45.486;12.222;2023-04-07T14:01:02;30.80;;;15.80;;
30824;SDS011;17550;45.486;12.222;2023-04-07T14:03:28;29.42;;;15.63;;
30824;SDS011;17550;45.486;12.222;2023-04-07T14:05:54;26.40;;;14.73;;
30824;SDS011;17550;45.486;12.222;2023-04-07T14:08:25;27.35;;;15.75;;
30824;SDS011;17550;45.486;12.222;2023-04-07T14:10:51;33.65;;;16.55;;
30824;SDS011;17550;45.486;12.222;2023-04-07T14:13:17;24.63;;;14.65;;
30824;SDS011;17550;45.486;12.222;2023-04-07T14:15:46;31.20;;;16.27;;
30824;SDS011;17550;45.486;12.222;2023-04-07T14:18:12;29.55;;;14.75;;
30824;SDS011;17550;45.486;12.222;2023-04-07T14:20:38;28.95;;;14.43;;
30824;SDS011;17550;45.486;12.222;2023-04-07T14:23:04;25.83;;;15.18;;
30824;SDS011;17550;45.486;12.222;2023-04-07T14:25:30;26.05;;;14.07;;
30824;SDS011;17550;45.486;12.222;2023-04-07T14:27:56;22.48;;;13.68;;
30824;SDS011;17550;45.486;12.222;2023-04-07T14:30:22;26.92;;;13.75;;
30824;SDS011;17550;45.486;12.222;2023-04-07T14:32:48;24.70;;;14.18;;
30824;SDS011;17550;45.486;12.222;2023-04-07T14:35:13;26.80;;;14.52;;
30824;SDS011;17550;45.486;12.222;2023-04-07T14:37:39;29.52;;;15.48;;
30824;SDS011;17550;45.486;12.222;2023-04-07T14:40:05;30.65;;;14.73;;
30824;SDS011;17550;45.486;12.222;2023-04-07T14:42:31;26.80;;;15.05;;